Latest Weather Observations for Merimbula

IDN60801

Issued at 9:32 pm EST Wednesday 12 August 2020 (issued every 10 minutes, with the page automatically refreshed every 10 minutes)

About weather observations | Map of weather stations | Latest weather observations for NSW | Other Formats
Station Details ID: 069147 Name: MERIMBULA AIRPORT AWS Lat: -36.91 Lon: 149.90 Height: 1.5 m
Data from the previous 72 hours. | See also: Recent months at Merimbula
Date/Time
EST
Temp
°C
App
Temp
°C
Dew
Point
°C
Rel
Hum
%
Delta-T
°C
Wind Press
QNH
hPa
Press
MSL
hPa
Rain since
9am
mm
Dir  Spd
km/h
Gust
km/h
Spd
kts
Gust
kts
12/09:30pm 9.7 9.1 9.1 96 0.3 SSE 2 7 1 4 1011.4 1011.4 0.0
12/09:00pm 10.0 8.7 9.2 95 0.4 NW 6 7 3 4 1011.5 1011.5 0.0
12/08:30pm 10.2 8.4 9.6 96 0.3 NW 9 11 5 6 1011.5 1011.5 0.0
12/08:00pm 10.6 10.2 9.8 95 0.4 SW 2 7 1 4 1011.4 1011.4 0.0
12/07:30pm 10.9 10.9 9.7 92 0.6 CALM 0 0 0 0 1011.3 1011.3 0.0
12/07:00pm 11.8 10.8 10.2 90 0.8 NW 6 9 3 5 1011.1 1011.1 0.0
12/06:30pm 12.3 11.2 10.7 90 0.8 NW 7 9 4 5 1010.9 1010.9 0.0
12/06:00pm 12.8 12.9 10.2 84 1.3 CALM 0 0 0 0 1010.7 1010.7 0.0
12/05:30pm 13.5 13.8 10.9 84 1.4 CALM 0 0 0 0 1010.7 1010.7 0.0
12/05:00pm 13.9 14.1 10.5 80 1.8 CALM 0 0 0 0 1010.5 1010.5 0.0
12/04:30pm 14.8 14.9 10.2 74 2.4 CALM 0 6 0 3 1010.5 1010.5 0.0
12/04:00pm 15.6 15.3 8.6 63 3.6 CALM 0 4 0 2 1010.4 1010.4 0.0
12/03:30pm 16.1 15.7 8.3 60 4.0 CALM 0 0 0 0 1010.5 1010.5 0.0
12/03:00pm 16.0 15.5 8.0 59 4.0 CALM 0 0 0 0 1010.6 1010.6 0.0
12/02:30pm 15.8 15.6 9.0 64 3.5 CALM 0 0 0 0 1010.8 1010.8 0.0
12/02:00pm 14.6 12.7 9.2 70 2.8 NE 9 13 5 7 1010.8 1010.8 0.0
12/01:30pm 14.7 11.9 8.6 67 3.1 NE 13 20 7 11 1011.1 1011.1 0.0
12/01:00pm 15.1 13.7 9.0 67 3.1 E 6 9 3 5 1011.3 1011.3 0.0
12/12:30pm 14.8 12.8 10.0 73 2.5 ENE 11 15 6 8 1012.0 1012.0 0.0
12/12:00pm 14.9 13.6 9.3 69 2.9 SSW 6 11 3 6 1012.4 1012.4 0.0
12/11:30am 14.3 14.4 10.1 76 2.2 CALM 0 0 0 0 1013.0 1013.0 0.0
12/11:00am 13.3 12.0 9.2 76 2.1 WNW 6 9 3 5 1014.0 1014.0 0.0
12/10:30am 11.5 10.3 9.6 88 1.0 SW 6 7 3 4 1014.6 1014.6 0.0
12/10:00am 10.6 9.3 10.0 96 0.3 NW 7 11 4 6 1014.7 1014.7 0.0
12/09:30am 9.2 8.3 9.1 99 0.0 WNW 4 9 2 5 1015.0 1015.0 0.0
12/09:00am 7.8 6.1 7.7 99 0.0 SW 6 9 3 5 1014.8 1014.8 0.0
12/08:30am 7.4 6.8 7.3 99 0.0 CALM 0 7 0 4 1014.5 1014.5 0.0
12/08:00am 6.8 5.3 6.7 99 0.0 SSW 4 9 2 5 1014.5 1014.5 0.0
12/07:30am 6.2 3.6 6.1 99 0.0 SW 9 11 5 6 1014.2 1014.2 0.0
12/07:00am 6.0 3.9 5.9 99 0.0 SSW 6 7 3 4 1014.2 1014.2 0.0
12/06:30am 6.2 5.3 6.1 99 0.0 CALM 0 0 0 0 1014.2 1014.2 0.0
12/06:00am 6.4 5.6 6.3 99 0.0 CALM 0 0 0 0 1014.0 1014.0 0.0
12/05:30am 4.7 3.5 4.6 99 0.0 CALM 0 0 0 0 1014.3 1014.3 0.0
12/05:00am 5.2 4.1 5.1 99 0.0 CALM 0 0 0 0 1014.5 1014.5 0.0
12/04:30am 5.4 4.3 5.3 99 0.0 CALM 0 0 0 0 1014.1 1014.1 0.0
12/04:00am 6.0 5.1 5.9 99 0.0 CALM 0 0 0 0 1014.2 1014.2 0.0
12/03:30am 6.1 5.2 6.0 99 0.0 CALM 0 0 0 0 1014.6 1014.6 0.0
12/03:00am 6.0 5.1 5.9 99 0.0 CALM 0 0 0 0 1014.6 1014.6 0.0
12/02:30am 6.2 5.3 6.1 99 0.0 CALM 0 0 0 0 1014.8 1014.8 0.0
12/02:00am 6.1 5.2 6.0 99 0.0 CALM 0 0 0 0 1015.3 1015.3 0.0
12/01:30am 5.9 4.9 5.8 99 0.0 CALM 0 0 0 0 1015.6 1015.6 0.0
12/01:00am 6.5 4.9 6.4 99 0.0 WSW 4 11 2 6 1015.9 1015.9 0.0
12/12:30am 6.1 5.2 6.0 99 0.0 CALM 0 0 0 0 1016.0 1016.0 0.0
12/12:00am 5.7 4.7 5.6 99 0.0 CALM 0 0 0 0 1016.0 1016.0 0.0
 
Date/Time
EST
Temp
°C
App
Temp
°C
Dew
Point
°C
Rel
Hum
%
Delta-T
°C
Wind Press
QNH
hPa
Press
MSL
hPa
Rain since
9am
mm
Dir  Spd
km/h
Gust
km/h
Spd
kts
Gust
kts
11/11:30pm 5.8 4.8 5.7 99 0.0 CALM 0 0 0 0 1016.3 1016.3 0.0
11/11:00pm 6.3 5.4 6.2 99 0.0 CALM 0 0 0 0 1016.7 1016.7 0.0
11/10:30pm 6.3 5.4 6.0 98 0.1 CALM 0 0 0 0 1016.6 1016.6 0.0
11/10:00pm 6.7 5.9 6.6 99 0.0 CALM 0 0 0 0 1016.9 1016.9 0.0
11/09:30pm 6.5 5.6 5.9 96 0.3 CALM 0 0 0 0 1017.1 1017.1 0.0
11/09:00pm 7.5 6.8 7.1 97 0.2 CALM 0 0 0 0 1017.5 1017.5 0.0
11/08:30pm 8.0 7.4 7.2 95 0.4 CALM 0 0 0 0 1017.9 1017.9 0.0
11/08:00pm 8.7 8.2 7.9 95 0.4 CALM 0 0 0 0 1017.7 1017.7 0.0
11/07:30pm 9.1 8.6 8.0 93 0.5 CALM 0 0 0 0 1017.5 1017.5 0.0
11/07:00pm 10.0 9.5 7.9 87 1.0 CALM 0 0 0 0 1017.8 1017.8 0.0
11/06:30pm 11.6 10.7 7.9 78 1.8 WNW 2 7 1 4 1017.6 1017.6 0.0
11/06:00pm 13.0 11.0 8.7 75 2.1 N 9 15 5 8 1017.0 1017.0 0.0
11/05:30pm 13.4 11.1 8.9 74 2.3 NNE 11 20 6 11 1016.6 1016.6 0.0
11/05:00pm 14.1 11.3 8.7 70 2.7 NNE 13 22 7 12 1016.6 1016.6 0.0
11/04:30pm 14.6 11.4 8.5 67 3.1 NNE 15 22 8 12 1016.5 1016.5 0.0
11/04:00pm 15.4 12.3 8.9 65 3.3 NNE 15 30 8 16 1016.4 1016.4 0.0
11/03:30pm 15.7 12.6 8.7 63 3.6 NNE 15 26 8 14 1016.5 1016.5 0.0
11/03:00pm 15.8 12.3 8.8 63 3.6 NNE 17 28 9 15 1016.6 1016.6 0.0
11/02:30pm 15.7 11.6 8.0 60 3.9 NE 19 32 10 17 1016.8 1016.8 0.0
11/02:00pm 15.8 11.5 7.8 59 4.0 NE 20 30 11 16 1017.1 1017.1 0.0
11/01:30pm 16.1 12.4 7.8 58 4.2 NE 17 26 9 14 1017.4 1017.4 0.0
11/01:00pm 16.1 12.3 7.6 57 4.2 NE 17 26 9 14 1017.7 1017.7 0.0
11/12:30pm 16.7 14.1 7.6 55 4.6 NNE 11 19 6 10 1018.3 1018.3 0.0
11/12:00pm 16.2 13.4 6.9 54 4.6 N 11 20 6 11 1019.0 1019.0 0.0
11/11:30am 15.6 12.1 7.1 57 4.2 NW 15 20 8 11 1019.6 1019.6 0.0
11/11:00am 14.8 11.1 6.1 56 4.2 NW 15 22 8 12 1020.1 1020.1 0.0
11/10:30am 14.4 10.6 6.0 57 4.0 NW 15 20 8 11 1020.5 1020.5 0.0
11/10:00am 13.9 10.2 6.3 60 3.6 NW 15 20 8 11 1020.9 1020.9 0.0
11/09:30am 12.7 9.0 6.3 65 3.0 NW 15 19 8 10 1020.9 1020.9 0.0
11/09:00am 10.2 8.2 6.4 77 1.8 W 6 9 3 5 1021.3 1021.3 0.0
11/08:30am 7.9 5.2 5.7 86 1.0 SW 9 11 5 6 1021.3 1021.3 0.0
11/08:00am 6.3 3.6 5.7 96 0.3 SW 9 13 5 7 1021.4 1021.4 0.0
11/07:30am 4.7 1.8 4.6 99 0.0 WSW 9 13 5 7 1021.5 1021.5 0.0
11/07:00am 5.0 2.1 4.9 99 0.0 W 9 15 5 8 1021.4 1021.4 0.0
11/06:30am 3.6 0.9 3.5 99 0.0 WSW 7 11 4 6 1021.1 1021.1 0.0
11/06:00am 3.6 1.1 3.5 99 0.0 WSW 6 7 3 4 1021.0 1021.0 0.0
11/05:30am 4.1 1.4 3.8 98 0.1 SW 7 9 4 5 1020.8 1020.8 0.0
11/05:00am 4.5 1.9 4.1 97 0.2 SW 7 9 4 5 1020.9 1020.9 0.0
11/04:30am 5.2 2.7 4.8 97 0.2 SW 7 11 4 6 1021.0 1021.0 0.0
11/04:00am 6.0 3.6 5.1 94 0.4 SW 7 11 4 6 1021.0 1021.0 0.0
11/03:30am 7.2 4.4 5.3 88 0.8 WNW 9 13 5 7 1021.3 1021.3 0.0
11/03:00am 7.5 4.1 6.0 90 0.7 NW 13 19 7 10 1021.5 1021.5 0.0
11/02:30am 9.0 6.1 6.3 83 1.2 NW 11 13 6 7 1021.7 1021.7 0.0
11/02:00am 9.9 6.6 6.6 80 1.5 WNW 13 17 7 9 1021.8 1021.8 0.0
11/01:30am 9.9 6.7 7.0 82 1.4 NW 13 17 7 9 1022.0 1022.0 0.0
11/01:00am 9.8 7.6 7.9 88 0.9 NW 9 13 5 7 1022.0 1022.0 0.0
11/12:30am 9.8 8.1 8.2 90 0.8 WNW 7 9 4 5 1022.1 1022.1 0.0
11/12:00am 9.9 8.3 8.0 88 0.9 SW 6 7 3 4 1022.2 1022.2 0.0
 
Date/Time
EST
Temp
°C
App
Temp
°C
Dew
Point
°C
Rel
Hum
%
Delta-T
°C
Wind Press
QNH
hPa
Press
MSL
hPa
Rain since
9am
mm
Dir  Spd
km/h
Gust
km/h
Spd
kts
Gust
kts
10/11:30pm 10.0 9.6 8.3 89 0.8 CALM 0 0 0 0 1022.2 1022.2 0.0
10/11:00pm 10.0 8.2 7.9 87 1.0 WNW 7 9 4 5 1022.3 1022.3 0.0
10/10:30pm 10.3 8.6 8.2 87 1.0 WNW 7 9 4 5 1022.4 1022.4 0.0
10/10:00pm 10.2 8.5 8.3 88 0.9 WSW 7 7 4 4 1022.6 1022.6 0.0
10/09:30pm 10.4 9.6 8.2 86 1.1 W 2 6 1 3 1022.7 1022.7 0.0
10/09:00pm 10.5 8.9 7.9 84 1.2 WSW 6 6 3 3 1022.9 1022.9 0.0
10/08:30pm 10.7 8.9 8.1 84 1.3 WNW 7 9 4 5 1022.9 1022.9 0.0
10/08:00pm 10.8 10.5 8.6 86 1.1 CALM 0 0 0 0 1022.7 1022.7 0.0
10/07:30pm 11.0 8.9 8.4 84 1.3 NW 9 11 5 6 1022.7 1022.7 0.0
10/07:00pm 11.2 9.1 8.2 82 1.5 NW 9 11 5 6 1022.6 1022.6 0.0
10/06:30pm 11.6 9.8 7.1 74 2.2 SW 6 7 3 4 1022.4 1022.4 0.0
10/06:00pm 11.9 9.5 6.8 71 2.4 S 9 11 5 6 1022.1 1022.1 0.0
10/05:30pm 12.1 10.0 6.8 70 2.5 S 7 13 4 7 1021.9 1021.9 0.0
10/05:00pm 12.8 10.9 6.6 66 2.9 S 6 7 3 4 1021.8 1021.8 0.0
10/04:30pm 13.2 11.2 6.3 63 3.3 SSW 6 9 3 5 1021.8 1021.8 0.0
10/04:00pm 13.6 10.6 6.2 61 3.5 SSW 11 15 6 8 1021.5 1021.5 0.0
10/03:30pm 13.4 10.9 6.7 64 3.2 SSW 9 13 5 7 1021.5 1021.5 0.0
10/03:00pm 13.2 10.3 6.5 64 3.2 S 11 17 6 9 1021.9 1021.9 0.0
10/02:30pm 13.6 10.2 5.7 59 3.7 SSE 13 20 7 11 1022.0 1022.0 0.0
10/02:00pm 13.7 10.2 7.0 64 3.2 SE 15 24 8 13 1022.0 1022.0 0.0
10/01:30pm 14.3 10.9 5.7 56 4.1 S 13 22 7 12 1021.9 1021.9 0.0
10/01:00pm 13.7 9.8 5.3 57 3.9 SSW 15 24 8 13 1022.1 1022.1 0.0
10/12:30pm 13.8 11.4 7.1 64 3.3 S 9 15 5 8 1022.4 1022.4 0.0
10/12:00pm 13.3 9.2 6.4 63 3.3 SSW 17 22 9 12 1022.7 1022.7 0.0
10/11:30am 13.4 9.3 6.3 62 3.4 SW 17 24 9 13 1022.8 1022.8 0.0
10/11:00am 13.2 9.7 7.0 66 3.0 SW 15 24 8 13 1023.0 1023.0 0.0
10/10:30am 12.8 9.2 6.6 66 3.0 SW 15 20 8 11 1022.9 1022.9 0.0
10/10:00am 12.8 10.0 7.0 68 2.8 SSW 11 17 6 9 1022.9 1022.9 0.0
10/09:30am 12.5 10.2 7.6 72 2.4 SW 9 15 5 8 1022.7 1022.7 0.0
10/09:00am 11.9 10.0 7.4 74 2.2 SSW 7 13 4 7 1022.7 1022.7 1.4
10/08:30am 11.5 8.8 7.4 76 2.0 S 11 19 6 10 1022.5 1022.5 1.4
10/08:00am 11.2 8.9 7.3 77 1.9 SW 9 13 5 7 1022.2 1022.2 1.4
10/07:30am 11.0 7.9 7.1 77 1.9 SW 13 17 7 9 1022.0 1022.0 1.4
10/07:00am 10.9 8.1 6.8 76 1.9 SSW 11 17 6 9 1021.6 1021.6 1.4
10/06:30am 11.0 8.2 6.9 76 1.9 SW 11 19 6 10 1021.1 1021.1 1.4
10/06:00am 11.0 8.2 7.1 77 1.9 SW 11 15 6 8 1020.9 1020.9 1.4
10/05:30am 11.2 8.0 6.9 75 2.0 SSW 13 22 7 12 1020.7 1020.7 1.4
10/05:00am 11.2 8.1 7.1 76 1.9 SSW 13 20 7 11 1020.4 1020.4 1.4
10/04:30am 11.4 8.3 7.1 75 2.1 SSW 13 20 7 11 1020.1 1020.1 1.4
10/04:00am 11.7 8.2 7.2 74 2.2 SSW 15 26 8 14 1019.8 1019.8 1.4
10/03:30am 11.5 8.4 7.4 76 2.0 SSW 13 24 7 13 1019.6 1019.6 1.4
10/03:00am 11.4 8.8 7.9 79 1.7 SSW 11 19 6 10 1019.6 1019.6 1.4
10/02:30am 11.2 8.7 8.2 82 1.5 SSW 11 15 6 8 1019.5 1019.5 1.4
10/02:00am 11.2 8.3 8.2 82 1.5 SSW 13 19 7 10 1019.4 1019.4 1.4
10/01:30am 11.6 8.0 8.3 80 1.6 SSW 17 24 9 13 1019.4 1019.4 1.4
10/01:00am 11.6 9.1 8.3 80 1.6 SSW 11 17 6 9 1019.3 1019.3 1.4
10/12:30am 11.4 8.9 8.4 82 1.5 SSW 11 17 6 9 1019.4 1019.4 1.4
10/12:00am 11.2 8.8 8.8 85 1.2 SW 11 15 6 8 1019.6 1019.6 1.4
 
Date/Time
EST
Temp
°C
App
Temp
°C
Dew
Point
°C
Rel
Hum
%
Delta-T
°C
Wind Press
QNH
hPa
Press
MSL
hPa
Rain since
9am
mm
Dir  Spd
km/h
Gust
km/h
Spd
kts
Gust
kts
09/11:30pm 11.1 8.7 8.5 84 1.3 SSW 11 15 6 8 1019.7 1019.7 1.4
09/11:00pm 11.7 8.8 8.0 78 1.8 S 13 20 7 11 1019.9 1019.9 1.4
09/10:30pm 11.8 8.9 8.3 79 1.7 SSW 13 17 7 9 1019.8 1019.8 1.4
09/10:00pm 12.6 9.3 7.9 73 2.3 S 15 20 8 11 1019.7 1019.7 1.4

Other formats

Comma delimited format used in spreadsheet applications
http://www.bom.gov.au/fwo/IDN60801/IDN60801.95929.axf

JavaScript Object Notation format (JSON) in row-major order
http://www.bom.gov.au/fwo/IDN60801/IDN60801.95929.json

Data quality

Most of these data are generated automatically and are frequently updated. Quality checks on data are not normally performed. It is possible for incorrect values to appear. Refer to information at About Latest Weather Observations and please check the disclaimer before using these data.